METAR AND TAF INFORMATION
METAR FOR KBKE
KBKE 211730Z 2118/2218 VRB05KT P6SM SCT200
FM212000 32008KT P6SM FEW150
TEMPO 2122/2202 31012G19KT
FM220500 VRB04KT P6SM SKC

 AIRPORT MAP

 RUNWAY INFORMATION
Runway 08 Runway length 3999 ft Runway width 140 ft
Runway elevation 3370 ft Runway displaced threshold 140 ft Runway heading 97
Runway 26 Runway length 3999 ft Runway width 140 ft
Runway elevation 3369 ft Runway displaced threshold 190 ft Runway heading 277
Runway 13 Runway length 5095 ft Runway width 100 ft
Runway elevation 3366 ft Runway displaced threshold 0 ft Runway heading 142
Runway 31 Runway length 5095 ft Runway width 100 ft
Runway elevation 3373 ft Runway displaced threshold 0 ft Runway heading 322
Runway 17 Runway length 4359 ft Runway width 75 ft
Runway elevation 3366 ft Runway displaced threshold 0 ft Runway heading 181
Runway 35 Runway length 4359 ft Runway width 75 ft
Runway elevation 3372 ft Runway displaced threshold 395 ft Runway heading 1

 AIRPORT FREQUENCIES
Type ASOS Name ASOS Frequency 134.275 MHZ
Type CNTR Name SALT LAKE Frequency 128.05 MHZ
Type UNIC Name CTAF/UNICO Frequency 123 MHZ

 AIRPORT NEAR NAVIGATION AIDS
Type VOR-DME Name Baker City Frequency 115300 KHZ

-